NWS Home NWS Lubbock West Texas Mesonet Central Sector Latest Conditions as of 0355 PM, Wed Mar 29, 2017

Latest   N   C   S   Daily Sum   3hrΔ   24hrΔ   Soil Data 
Site Map   24hr Precip   72hr Precip   Google Plot


Station Time of Last Temp Dew Pt. RH Wind Direction Wind Speed Wind Gust Max Wind Max Temp Min Temp Max RH Min RH Altimeter 1HR Rain Today's Rain Solar Rad Red Flag
Abernathy 5ENE  03:50 PM 46 40 82% N2126 38 mph 359° @ 1235 PM 51 44 100 82 29.92" 0 0.25 136  
Aiken 3WSW  03:50 PM 46 41 83% N2729 41 mph 357° @ 1146 AM 49 44 100 81 29.91" 0 0.26 156  
Amherst 1NE  03:50 PM 47 41 80% N2432 38 mph 347° @ 1125 AM 50 39 100 80 29.93" 0 0.93 371  
Anton 6SSW  03:50 PM 45 41 88% N1925 37 mph 342° @ 1120 AM 51 42 100 84 29.93" 0.01 1.40 82  
Aspermont 3NE  03:50 PM 56 46 71% NW1620 27 mph 324° @ 0130 PM 66 51 100 55 29.83" 0 0.13 80  
Bootleg 11WNW  03:50 PM 43 39 85% N2531 42 mph 357° @ 0104 PM 43 36 98 83 29.98" 0 0.87 264  
Brownfield 2S  03:50 PM 47 39 73% N1925 37 mph 330° @ 1105 AM 57 45 91 61 29.94" 0 0.00 133  
Caprock Canyons State Park  03:50 PM 50 41 71% N1622 37 mph 18° @ 1229 AM 50 46 100 70 29.88" 0 1.01 211  
Childress 2NNE  03:45 PM 54 43 69% NW1724 45 mph 38° @ 0205 AM 55 50 100 67 29.84" 0 0.84 265  
Clarendon 2WSW  03:50 PM 49 41 75% N1924 37 mph 33° @ 0135 AM 49 44 96 74 29.87" 0 1.56 250  
Claude 12SW  03:50 PM 45 39 80% N2631 60 mph 40° @ 1236 AM 51 40 99 79 29.88" 0 1.48 359  
Crowell 1E  03:50 PM 56 48 73% N1820 37 mph 62° @ 0251 AM 58 53 98 71 29.82" 0 0.46 222  
Denver City 7WNW  03:50 PM 47 39 74% N2029 36 mph 335° @ 1125 AM 48 44 84 61 29.95" 0 0.00 365  
Dimmitt 2NE  03:50 PM 45 40 83% NW2431 44 mph 334° @ 1035 AM 46 38 99 83 29.92" 0 1.24 290  
Dora NM 2SW  03:50 PM 47 42 83% N2431 38 mph 351° @ 0120 PM 47 33 100 83 29.97" 0.01 0.43 241  
Floydada 2NNE  03:50 PM 47 40 79% N1724 35 mph 355° @ 1220 PM 49 45 100 79 29.88" 0 0.25 205  
Fluvanna 3WNW  03:50 PM 49 46 90% NW1923 34 mph 306° @ 0125 PM 56 42 90 67 29.88" 0 0.00 178  
Friona 2NE  03:50 PM 45 39 82% N2330 41 mph 4° @ 0940 AM 46 37 98 78 29.95" 0 1.55 218  
Gail 2ESE  03:50 PM 52 44 74% NW1926 33 mph 319° @ 0145 PM 59 44 86 55 29.89" 0 0.00 235  
Goodlett 3W  03:50 PM 56 45 69% NW1926 39 mph 46° @ 0310 AM 56 52 95 67 29.82" 0 0.83 353  
Graham 5SSW  03:45 PM 49 40 73% N2230 42 mph 331° @ 0105 PM 57 43 92 53 29.89" 0 0.00 120  
Guthrie 10WSW  03:50 PM 54 44 69% NW1724 30 mph 339° @ 0225 PM 60 52 97 66 29.84" 0 0.03 115  
Hart 3N  03:50 PM 46 40 81% N2534 40 mph 359° @ 1010 AM 48 40 98 81 29.91" 0 0.80 319  
Haskell 1NW  03:50 PM 56 50 82% N2024 31 mph 328° @ 0210 PM 66 54 100 54 29.80" 0 1.91 154  
Hereford 2NW  03:50 PM 47 39 75% N2937 42 mph 357° @ 0210 PM 47 39 99 74 29.93" 0 1.60 519  
Hobbs NM 5NW  03:50 PM 49 39 68% N1721 34 mph 339° @ 1144 AM 50 44 84 55 29.99" 0 0.00 233  
Jayton 1SSE  03:50 PM 54 45 73% N1318 25 mph 342° @ 0210 PM 62 48 98 60 29.85" 0 0.05 138  
Knox City 3NW  03:50 PM 57 46 69% N1621 37 mph 342° @ 1210 AM 67 55 91 48 29.82" 0 0.12 108  
Lake Alan Henry 1NW  03:50 PM 51 46 83% N1114 29 mph 337° @ 0148 PM 61 44 91 57 29.88" 0 0.01 191  
Lamesa 2SE  03:50 PM 50 40 70% NW1623 39 mph 314° @ 0105 PM 55 42 85 58 29.93" 0 0.00 128  
Levelland 4S  03:50 PM 45 40 85% N1723 36 mph 338° @ 1205 PM 52 41 92 76 29.94" 0 0.23 140  
Lubbock 3WNW TTU  03:50 PM 46 41 85% N1524 32 mph 353° @ 1210 PM 53 45 100 84 29.93" 0 0.36 84  
Memphis 1NE  03:50 PM 51 42 74% NW2027 47 mph 25° @ 0325 AM 53 49 99 74 29.86" 0 1.06 165  
Morton 1ENE  03:50 PM 47 41 79% NW2226 36 mph 348° @ 0310 PM 51 37 95 76 29.94" 0 0.48 232  
Muleshoe 2SSW  03:50 PM 48 39 74% N2332 37 mph 346° @ 0215 PM 48 37 98 74 29.95" 0 0.80 297  
New Home  03:50 PM 48 41 75% N2022 33 mph 354° @ 1215 PM 55 45 94 67 29.93" 0 0.02 369  
Northfield 1S  03:50 PM 53 42 65% N2027 45 mph 46° @ 1250 AM 54 50 74 M 29.86" 0 0.71 344 90
O'Donnell 1N  03:50 PM 49 37 66% N2027 35 mph 313° @ 1235 PM 57 40 90 47 29.91" 0 0.01 108  
Odell 4ENE  03:50 PM 56 48 72% N1720 38 mph 33° @ 0325 AM 57 52 100 69 29.82" 0 0.50 208  
Olton 6S  03:50 PM 46 39 77% N2430 40 mph 355° @ 1210 PM 49 42 96 77 29.91" 0 0.76 242  
Paducah 10SW  03:50 PM 54 45 72% N2025 34 mph 52° @ 1245 AM 58 51 100 72 29.84" 0 0.17 183  
Palo Duro Canyon SP Floor  03:50 PM 51 41 68% N2733 39 mph 340° @ 0201 PM 51 42 96 68 29.90" 0 1.18 571  
Palo Duro Canyon State Park Rim  03:50 PM 47 39 75% N1926 39 mph 358° @ 0249 PM 48 39 96 72 29.90" 0 1.08 522  
Plains 3N  03:50 PM 50 38 66% N2732 39 mph 336° @ 1200 PM 54 41 89 48 29.95" 0 0.00 385  
Plainview 1S  03:50 PM 46 39 78% N2030 38 mph 352° @ 1220 PM 49 44 100 78 29.90" 0 0.32 141  
Post 1NE  03:50 PM 50 41 70% NW2127 36 mph 322° @ 1255 PM 57 49 95 64 29.89" 0 0.04 184  
Ralls 1SE  03:50 PM 48 41 79% N1722 31 mph 345° @ 1220 PM 52 45 97 77 29.89" 0.01 0.16 243  
Reese Center  03:50 PM 44 41 88% N2024 38 mph 347° @ 1145 AM 51 43 98 85 29.93" 0 0.77 213  
Roaring Springs 3N  03:50 PM 50 43 80% NW2028 38 mph 38° @ 1205 AM 51 48 100 80 29.86" 0 0.21 175  
Seagraves 1SW  03:50 PM 46 42 87% N1722 36 mph 331° @ 1100 AM 50 39 87 60 29.95" 0 0.00 139  
Seminole 2NNE  03:50 PM 49 39 67% N2027 37 mph 338° @ 0215 PM 51 44 82 54 29.95" 0 0.00 350  
Seymour 3NW  03:50 PM 57 50 80% NW1519 35 mph 38° @ 0255 AM 67 54 96 55 29.80" 0 0.16 244  
Silverton 7ESE  03:50 PM 49 39 72% NW2330 54 mph 23° @ 1225 AM 49 44 100 72 29.88" 0 1.07 371  
Slaton 2NE  03:50 PM 48 41 80% N2027 34 mph 341° @ 1210 PM 53 44 97 76 29.90" 0 0.05 263  
Snyder 3E  03:50 PM 52 48 87% NW1822 30 mph 299° @ 0240 PM 61 47 99 58 29.86" 0 0.01 134  
Snyder 3SSW  03:50 PM 53 46 77% NW1820 28 mph 280° @ 1216 PM 62 47 89 54 29.87" 0 0.00 274  
Spur 1W  03:50 PM 53 44 74% N1923 30 mph 1° @ 0120 PM 58 48 96 72 29.85" 0 0.11 296  
Stamford 5ESE  03:50 PM 59 53 78% N1923 36 mph 68° @ 0150 AM 68 52 98 52 29.81" 0 0.22 327  
Sundown 8WSW  03:50 PM 47 38 71% N2330 39 mph 344° @ 1225 PM 53 39 94 71 29.94" 0 0.11 175  
Tahoka 3NNE  03:50 PM 49 41 74% N2225 33 mph 338° @ 1222 PM 55 46 93 56 29.91" 0 0.08 432  
Tatum NM 2SW  03:50 PM 49 37 63% NW2330 37 mph 336° @ 1240 PM 50 39 88 58 29.97" 0 0.00 205  
Throckmorton 1SW  03:50 PM 63 53 70% NW1419 32 mph 308° @ 1215 AM 69 55 98 49 29.79" 0 0.16 318  
Tulia 2ENE  03:50 PM 45 40 85% N2329 41 mph 348° @ 1205 PM 47 42 100 84 29.91" 0 1.04 183  
Turkey 2WSW  03:50 PM 53 43 71% N2228 39 mph 27° @ 1235 AM 53 47 100 71 29.86" 0 1.51 420  
Umbarger 3NNE  03:50 PM 45 40 83% N2832 45 mph 348° @ 0255 PM 46 38 99 81 29.92" 0 1.56 147  
Vigo Park  03:50 PM 45 39 80% N2025 38 mph 343° @ 1239 PM 49 42 99 76 29.90" 0 1.36 235  
Weinert 2NNE  03:50 PM 57 50 78% N1720 29 mph 1° @ 0222 PM 67 55 95 49 29.81" 0 0.11 135  
Welch  03:50 PM 50 39 67% N2628 37 mph 337° @ 1228 PM 59 45 85 42 29.94" 0 0.00 163  
White River Lake 6NW  03:50 PM 50 41 73% N2329 33 mph 343° @ 0135 PM 56 48 96 71 29.87" 0 0.13 194  
Wolfforth 6SSW  03:50 PM 45 42 87% N2327 36 mph 348° @ 1210 PM 53 43 100 81 29.93" 0 0.65 169  

West Texas Mesonet Home   Site Map/Menu  NWS Lubbock Soil Data  Daily Summary Page  24hr Precip  72hr Precip  Google Plot